sensor_id;sensor_type;location;lat;lon;timestamp;pressure;altitude;pressure_sealevel;temperature;humidity
71384;BME280;61466;52.166;5.004;2022-08-01T00:00:24;101763.81;;;20.82;72.13
71384;BME280;61466;52.166;5.004;2022-08-01T00:02:50;101780.00;;;20.88;71.91
71384;BME280;61466;52.166;5.004;2022-08-01T00:05:15;101777.91;;;20.84;72.18
71384;BME280;61466;52.166;5.004;2022-08-01T00:07:40;101777.72;;;20.81;72.40
71384;BME280;61466;52.166;5.004;2022-08-01T00:10:12;101776.28;;;20.83;72.24
71384;BME280;61466;52.166;5.004;2022-08-01T00:12:39;101776.94;;;20.80;72.11
71384;BME280;61466;52.166;5.004;2022-08-01T00:15:07;101782.84;;;20.82;72.62
71384;BME280;61466;52.166;5.004;2022-08-01T00:17:33;101766.00;;;20.72;72.63
71384;BME280;61466;52.166;5.004;2022-08-01T00:19:58;101780.38;;;20.72;72.59
71384;BME280;61466;52.166;5.004;2022-08-01T00:22:23;101752.19;;;20.45;72.60
71384;BME280;61466;52.166;5.004;2022-08-01T00:24:49;101790.78;;;20.70;72.75
71384;BME280;61466;52.166;5.004;2022-08-01T00:27:14;101789.78;;;20.66;72.87
71384;BME280;61466;52.166;5.004;2022-08-01T00:29:40;101791.56;;;20.71;72.81
71384;BME280;61466;52.166;5.004;2022-08-01T00:32:05;101763.94;;;20.55;72.84
71384;BME280;61466;52.166;5.004;2022-08-01T00:34:31;101788.34;;;20.69;72.97
71384;BME280;61466;52.166;5.004;2022-08-01T00:36:56;101784.22;;;20.71;73.15
71384;BME280;61466;52.166;5.004;2022-08-01T00:39:21;101797.50;;;20.73;72.62
71384;BME280;61466;52.166;5.004;2022-08-01T00:41:46;101796.69;;;20.72;73.22
71384;BME280;61466;52.166;5.004;2022-08-01T00:44:12;101802.13;;;20.72;73.15
71384;BME280;61466;52.166;5.004;2022-08-01T00:46:37;101790.28;;;20.68;72.87
71384;BME280;61466;52.166;5.004;2022-08-01T00:49:02;101795.56;;;20.73;73.25
71384;BME280;61466;52.166;5.004;2022-08-01T00:51:28;101793.69;;;20.74;73.04
71384;BME280;61466;52.166;5.004;2022-08-01T00:53:54;101795.56;;;20.73;73.05
71384;BME280;61466;52.166;5.004;2022-08-01T00:56:20;101798.28;;;20.73;73.29
71384;BME280;61466;52.166;5.004;2022-08-01T00:58:47;101792.84;;;20.73;73.18
71384;BME280;61466;52.166;5.004;2022-08-01T01:01:12;101798.28;;;20.73;73.26
71384;BME280;61466;52.166;5.004;2022-08-01T01:03:38;101785.94;;;20.67;73.40
71384;BME280;61466;52.166;5.004;2022-08-01T01:06:13;101787.84;;;20.66;73.37
71384;BME280;61466;52.166;5.004;2022-08-01T01:08:43;101790.09;;;20.64;73.62
71384;BME280;61466;52.166;5.004;2022-08-01T01:11:22;101790.78;;;20.70;73.59
71384;BME280;61466;52.166;5.004;2022-08-01T01:13:54;101802.13;;;20.72;73.56
71384;BME280;61466;52.166;5.004;2022-08-01T01:16:23;101779.41;;;20.68;73.61
71384;BME280;61466;52.166;5.004;2022-08-01T01:18:54;101772.00;;;20.60;73.71
71384;BME280;61466;52.166;5.004;2022-08-01T01:27:10;101786.06;;;20.62;73.67
71384;BME280;61466;52.166;5.004;2022-08-01T01:29:41;101795.84;;;20.63;73.59
71384;BME280;61466;52.166;5.004;2022-08-01T01:32:20;101794.34;;;20.57;73.73
71384;BME280;61466;52.166;5.004;2022-08-01T01:34:49;101789.72;;;20.57;73.68
71384;BME280;61466;52.166;5.004;2022-08-01T01:37:20;101783.16;;;20.58;73.97
71384;BME280;61466;52.166;5.004;2022-08-01T01:39:49;101794.84;;;20.59;74.05
71384;BME280;61466;52.166;5.004;2022-08-01T01:42:18;101792.16;;;20.45;74.29
71384;BME280;61466;52.166;5.004;2022-08-01T01:44:45;101796.94;;;20.39;74.43
71384;BME280;61466;52.166;5.004;2022-08-01T01:47:13;101794.22;;;20.39;74.66
71384;BME280;61466;52.166;5.004;2022-08-01T01:49:40;101793.72;;;20.37;74.61
71384;BME280;61466;52.166;5.004;2022-08-01T01:52:07;101800.72;;;20.38;74.38
71384;BME280;61466;52.166;5.004;2022-08-01T01:54:36;101787.78;;;20.35;74.72
71384;BME280;61466;52.166;5.004;2022-08-01T01:57:04;101788.28;;;20.37;74.91
71384;BME280;61466;52.166;5.004;2022-08-01T01:59:33;101788.06;;;20.34;74.84
71384;BME280;61466;52.166;5.004;2022-08-01T02:02:02;101796.72;;;20.36;75.02
71384;BME280;61466;52.166;5.004;2022-08-01T02:04:28;101793.00;;;20.32;75.11
71384;BME280;61466;52.166;5.004;2022-08-01T02:06:55;101804.09;;;20.35;75.22
71384;BME280;61466;52.166;5.004;2022-08-01T02:09:23;101800.53;;;20.35;74.88
71384;BME280;61466;52.166;5.004;2022-08-01T02:11:53;101804.09;;;20.35;74.83
71384;BME280;61466;52.166;5.004;2022-08-01T02:14:19;101801.38;;;20.35;75.00
71384;BME280;61466;52.166;5.004;2022-08-01T02:16:48;101805.97;;;20.35;74.95
71384;BME280;61466;52.166;5.004;2022-08-01T02:19:16;101806.31;;;20.33;74.95
71384;BME280;61466;52.166;5.004;2022-08-01T02:22:01;101800.88;;;20.33;75.62
71384;BME280;61466;52.166;5.004;2022-08-01T02:24:42;101796.03;;;20.30;75.01
71384;BME280;61466;52.166;5.004;2022-08-01T02:27:15;101803.59;;;20.33;75.05
71384;BME280;61466;52.166;5.004;2022-08-01T02:29:43;101805.50;;;20.33;75.28
71384;BME280;61466;52.166;5.004;2022-08-01T02:32:20;101809.81;;;20.34;75.21
71384;BME280;61466;52.166;5.004;2022-08-01T02:34:49;101808.69;;;20.35;74.86
71384;BME280;61466;52.166;5.004;2022-08-01T02:37:17;101807.09;;;20.34;75.10
71384;BME280;61466;52.166;5.004;2022-08-01T02:39:45;101805.81;;;20.31;75.22
71384;BME280;61466;52.166;5.004;2022-08-01T02:42:13;101803.19;;;20.26;74.76
71384;BME280;61466;52.166;5.004;2022-08-01T02:44:41;101808.63;;;20.26;75.06
71384;BME280;61466;52.166;5.004;2022-08-01T02:47:07;101803.31;;;20.21;75.05
71384;BME280;61466;52.166;5.004;2022-08-01T02:49:37;101801.09;;;20.23;75.05
71384;BME280;61466;52.166;5.004;2022-08-01T02:52:07;101797.75;;;20.26;74.93
71384;BME280;61466;52.166;5.004;2022-08-01T02:54:33;101800.47;;;20.26;74.89
71384;BME280;61466;52.166;5.004;2022-08-01T02:57:01;101799.97;;;20.24;75.17
71384;BME280;61466;52.166;5.004;2022-08-01T02:59:28;101797.25;;;20.24;74.84
71384;BME280;61466;52.166;5.004;2022-08-01T03:01:55;101793.06;;;20.18;74.70
71384;BME280;61466;52.166;5.004;2022-08-01T03:04:22;101800.91;;;20.19;75.08
71384;BME280;61466;52.166;5.004;2022-08-01T03:06:51;101796.38;;;20.15;74.77
71384;BME280;61466;52.166;5.004;2022-08-01T03:09:18;101805.66;;;20.14;75.03
71384;BME280;61466;52.166;5.004;2022-08-01T03:11:45;101809.47;;;20.13;75.03
71384;BME280;61466;52.166;5.004;2022-08-01T03:14:12;101816.81;;;20.12;74.90
71384;BME280;61466;52.166;5.004;2022-08-01T03:16:39;101809.28;;;20.09;74.71
71384;BME280;61466;52.166;5.004;2022-08-01T03:19:08;101814.22;;;20.07;74.79
71384;BME280;61466;52.166;5.004;2022-08-01T03:21:35;101809.81;;;19.97;74.70
71384;BME280;61466;52.166;5.004;2022-08-01T03:24:03;101821.78;;;19.96;74.92
71384;BME280;61466;52.166;5.004;2022-08-01T03:26:32;101825.72;;;19.90;74.71
71384;BME280;61466;52.166;5.004;2022-08-01T03:29:12;101821.19;;;19.86;75.12
71384;BME280;61466;52.166;5.004;2022-08-01T03:31:40;101814.84;;;19.76;74.98
71384;BME280;61466;52.166;5.004;2022-08-01T03:34:08;101821.78;;;19.82;75.13
71384;BME280;61466;52.166;5.004;2022-08-01T03:36:43;101820.69;;;19.83;75.21
71384;BME280;61466;52.166;5.004;2022-08-01T03:39:11;101817.06;;;19.88;75.34
71384;BME280;61466;52.166;5.004;2022-08-01T03:41:40;101819.16;;;19.91;75.22
71384;BME280;61466;52.166;5.004;2022-08-01T03:44:17;101821.88;;;19.91;75.14
71384;BME280;61466;52.166;5.004;2022-08-01T03:46:47;101826.50;;;19.91;74.97
71384;BME280;61466;52.166;5.004;2022-08-01T03:49:38;101823.00;;;19.90;74.98
71384;BME280;61466;52.166;5.004;2022-08-01T03:52:07;101827.44;;;19.86;74.96
71384;BME280;61466;52.166;5.004;2022-08-01T03:54:36;101828.50;;;19.85;74.68
71384;BME280;61466;52.166;5.004;2022-08-01T03:57:03;101823.69;;;19.82;74.96
71384;BME280;61466;52.166;5.004;2022-08-01T03:59:30;101813.56;;;19.74;74.61
71384;BME280;61466;52.166;5.004;2022-08-01T04:01:56;101821.69;;;19.74;74.64
71384;BME280;61466;52.166;5.004;2022-08-01T04:04:23;101821.59;;;19.93;73.98
71384;BME280;61466;52.166;5.004;2022-08-01T04:06:48;101815.22;;;19.97;74.22
71384;BME280;61466;52.166;5.004;2022-08-01T04:09:19;101814.16;;;19.71;74.79
71384;BME280;61466;52.166;5.004;2022-08-01T04:11:45;101823.19;;;19.66;75.11
71384;BME280;61466;52.166;5.004;2022-08-01T04:14:10;101818.66;;;19.61;75.08
71384;BME280;61466;52.166;5.004;2022-08-01T04:16:36;101827.28;;;19.63;75.33
71384;BME280;61466;52.166;5.004;2022-08-01T04:19:02;101820.66;;;19.56;75.44
71384;BME280;61466;52.166;5.004;2022-08-01T04:21:28;101825.69;;;19.62;75.52
71384;BME280;61466;52.166;5.004;2022-08-01T04:23:59;101828.91;;;19.64;75.23
71384;BME280;61466;52.166;5.004;2022-08-01T04:26:25;101824.00;;;19.67;75.55
71384;BME280;61466;52.166;5.004;2022-08-01T04:28:53;101827.50;;;19.67;75.55
71384;BME280;61466;52.166;5.004;2022-08-01T04:31:20;101834.97;;;19.75;75.65
71384;BME280;61466;52.166;5.004;2022-08-01T04:33:49;101837.91;;;19.79;75.73
71384;BME280;61466;52.166;5.004;2022-08-01T04:36:18;101828.63;;;19.80;75.66
71384;BME280;61466;52.166;5.004;2022-08-01T04:38:46;101842.09;;;19.99;75.12
71384;BME280;61466;52.166;5.004;2022-08-01T04:41:13;101840.00;;;19.82;75.02
71384;BME280;61466;52.166;5.004;2022-08-01T04:43:39;101849.22;;;19.95;74.56
71384;BME280;61466;52.166;5.004;2022-08-01T04:46:06;101857.59;;;19.84;75.05
71384;BME280;61466;52.166;5.004;2022-08-01T04:48:33;101861.50;;;19.78;75.29
71384;BME280;61466;52.166;5.004;2022-08-01T04:51:00;101861.81;;;19.77;75.38
71384;BME280;61466;52.166;5.004;2022-08-01T04:53:25;101852.34;;;19.74;75.55
71384;BME280;61466;52.166;5.004;2022-08-01T04:55:51;101851.56;;;19.74;75.25
71384;BME280;61466;52.166;5.004;2022-08-01T04:58:17;101850.84;;;19.82;75.59
71384;BME280;61466;52.166;5.004;2022-08-01T05:00:43;101853.28;;;19.83;75.27
71384;BME280;61466;52.166;5.004;2022-08-01T05:03:08;101859.38;;;19.89;75.24
71384;BME280;61466;52.166;5.004;2022-08-01T05:05:34;101858.47;;;19.94;75.27
71384;BME280;61466;52.166;5.004;2022-08-01T05:07:59;101864.91;;;19.98;75.21
71384;BME280;61466;52.166;5.004;2022-08-01T05:10:25;101867.22;;;20.04;75.46
71384;BME280;61466;52.166;5.004;2022-08-01T05:12:51;101857.34;;;20.09;75.20
71384;BME280;61466;52.166;5.004;2022-08-01T05:15:16;101858.34;;;20.13;74.87
71384;BME280;61466;52.166;5.004;2022-08-01T05:17:42;101864.00;;;20.16;74.85
71384;BME280;61466;52.166;5.004;2022-08-01T05:20:07;101861.47;;;20.20;74.67
71384;BME280;61466;52.166;5.004;2022-08-01T05:22:33;101863.88;;;20.21;74.57
71384;BME280;61466;52.166;5.004;2022-08-01T05:24:58;101871.72;;;20.23;74.76
71384;BME280;61466;52.166;5.004;2022-08-01T05:27:24;101869.72;;;20.29;74.47
71384;BME280;61466;52.166;5.004;2022-08-01T05:29:50;101869.09;;;20.32;74.47
71384;BME280;61466;52.166;5.004;2022-08-01T05:32:15;101870.88;;;20.36;74.62
71384;BME280;61466;52.166;5.004;2022-08-01T05:34:40;101875.72;;;20.39;74.36
71384;BME280;61466;52.166;5.004;2022-08-01T05:37:06;101864.22;;;20.42;74.66
71384;BME280;61466;52.166;5.004;2022-08-01T05:39:32;101878.69;;;20.52;74.63
71384;BME280;61466;52.166;5.004;2022-08-01T05:41:57;101885.34;;;20.59;74.45
71384;BME280;61466;52.166;5.004;2022-08-01T05:44:23;101874.84;;;20.66;74.48
71384;BME280;61466;52.166;5.004;2022-08-01T05:46:48;101877.13;;;20.73;74.24
71384;BME280;61466;52.166;5.004;2022-08-01T05:49:13;101878.63;;;20.79;74.17
71384;BME280;61466;52.166;5.004;2022-08-01T05:51:39;101878.63;;;20.79;73.64
71384;BME280;61466;52.166;5.004;2022-08-01T05:54:04;101890.84;;;20.91;73.79
71384;BME280;61466;52.166;5.004;2022-08-01T05:56:29;101886.09;;;20.96;73.32
71384;BME280;61466;52.166;5.004;2022-08-01T05:58:55;101888.69;;;21.01;73.70
71384;BME280;61466;52.166;5.004;2022-08-01T06:01:20;101876.72;;;21.02;73.39
71384;BME280;61466;52.166;5.004;2022-08-01T06:03:46;101869.94;;;20.91;72.94
71384;BME280;61466;52.166;5.004;2022-08-01T06:06:11;101884.56;;;21.04;72.94
71384;BME280;61466;52.166;5.004;2022-08-01T06:08:39;101881.47;;;20.97;72.84
71384;BME280;61466;52.166;5.004;2022-08-01T06:11:04;101897.19;;;21.00;72.73
71384;BME280;61466;52.166;5.004;2022-08-01T06:13:30;101901.19;;;21.02;73.07
71384;BME280;61466;52.166;5.004;2022-08-01T06:15:55;101905.84;;;21.02;72.71
71384;BME280;61466;52.166;5.004;2022-08-01T06:18:21;101903.56;;;20.95;72.92
71384;BME280;61466;52.166;5.004;2022-08-01T06:20:46;101906.44;;;20.99;72.86
71384;BME280;61466;52.166;5.004;2022-08-01T06:23:11;101909.06;;;21.04;72.39
71384;BME280;61466;52.166;5.004;2022-08-01T06:25:38;101898.66;;;21.06;72.56
71384;BME280;61466;52.166;5.004;2022-08-01T06:28:04;101901.88;;;21.08;72.55
71384;BME280;61466;52.166;5.004;2022-08-01T06:30:29;101905.09;;;21.10;72.11
71384;BME280;61466;52.166;5.004;2022-08-01T06:32:54;101894.22;;;21.10;72.21
71384;BME280;61466;52.166;5.004;2022-08-01T06:35:25;101892.28;;;21.11;71.83
71384;BME280;61466;52.166;5.004;2022-08-01T06:37:50;101906.44;;;21.21;71.59
71384;BME280;61466;52.166;5.004;2022-08-01T06:40:16;101902.03;;;21.34;71.22
71384;BME280;61466;52.166;5.004;2022-08-01T06:42:41;101909.84;;;21.50;71.23
71384;BME280;61466;52.166;5.004;2022-08-01T06:45:09;101904.88;;;21.52;70.94
71384;BME280;61466;52.166;5.004;2022-08-01T06:47:35;101914.03;;;21.56;70.43
71384;BME280;61466;52.166;5.004;2022-08-01T06:50:00;101910.22;;;21.65;70.41
71384;BME280;61466;52.166;5.004;2022-08-01T06:52:26;101917.38;;;21.93;70.27
71384;BME280;61466;52.166;5.004;2022-08-01T06:54:51;101918.53;;;22.09;69.24
71384;BME280;61466;52.166;5.004;2022-08-01T06:57:17;101921.25;;;22.09;68.48
71384;BME280;61466;52.166;5.004;2022-08-01T06:59:42;101923.78;;;21.88;68.84
71384;BME280;61466;52.166;5.004;2022-08-01T07:02:07;101928.81;;;21.72;68.35
71384;BME280;61466;52.166;5.004;2022-08-01T07:04:33;101926.97;;;21.50;68.72
71384;BME280;61466;52.166;5.004;2022-08-01T07:06:59;101940.69;;;21.22;69.07
71384;BME280;61466;52.166;5.004;2022-08-01T07:09:25;101936.25;;;21.04;69.01
71384;BME280;61466;52.166;5.004;2022-08-01T07:11:51;101944.03;;;20.97;69.25
71384;BME280;61466;52.166;5.004;2022-08-01T07:14:18;101941.31;;;20.97;69.11
71384;BME280;61466;52.166;5.004;2022-08-01T07:16:44;101944.09;;;21.05;68.91
71384;BME280;61466;52.166;5.004;2022-08-01T07:19:09;101948.50;;;21.15;68.51
71384;BME280;61466;52.166;5.004;2022-08-01T07:21:35;101941.88;;;21.30;68.62
71384;BME280;61466;52.166;5.004;2022-08-01T07:24:00;101951.09;;;21.43;67.68
71384;BME280;61466;52.166;5.004;2022-08-01T07:26:25;101951.66;;;21.54;66.83
71384;BME280;61466;52.166;5.004;2022-08-01T07:28:52;101943.03;;;21.60;66.41
71384;BME280;61466;52.166;5.004;2022-08-01T07:31:18;101952.00;;;21.92;66.62
71384;BME280;61466;52.166;5.004;2022-08-01T07:33:43;101948.13;;;22.33;64.98
71384;BME280;61466;52.166;5.004;2022-08-01T07:36:08;101949.34;;;23.02;63.84
71384;BME280;61466;52.166;5.004;2022-08-01T07:38:34;101945.41;;;23.94;62.36
71384;BME280;61466;52.166;5.004;2022-08-01T07:40:59;101946.22;;;24.75;60.62
71384;BME280;61466;52.166;5.004;2022-08-01T07:43:24;101949.13;;;25.57;58.78
71384;BME280;61466;52.166;5.004;2022-08-01T07:45:50;101951.22;;;26.22;57.02
71384;BME280;61466;52.166;5.004;2022-08-01T07:48:15;101945.88;;;26.78;55.74
71384;BME280;61466;52.166;5.004;2022-08-01T07:50:40;101958.25;;;27.28;54.97
71384;BME280;61466;52.166;5.004;2022-08-01T07:53:06;101963.97;;;27.23;52.46
71384;BME280;61466;52.166;5.004;2022-08-01T07:55:31;101966.38;;;26.68;51.63
71384;BME280;61466;52.166;5.004;2022-08-01T07:57:56;101965.97;;;26.17;51.41
71384;BME280;61466;52.166;5.004;2022-08-01T08:00:23;101959.88;;;25.74;52.25
71384;BME280;61466;52.166;5.004;2022-08-01T08:02:48;101963.19;;;25.22;52.35
71384;BME280;61466;52.166;5.004;2022-08-01T08:05:14;101964.19;;;24.97;52.81
71384;BME280;61466;52.166;5.004;2022-08-01T08:07:39;101963.56;;;24.79;52.84
71384;BME280;61466;52.166;5.004;2022-08-01T08:10:05;101964.22;;;24.55;53.06
71384;BME280;61466;52.166;5.004;2022-08-01T08:12:31;101960.69;;;24.45;53.23
71384;BME280;61466;52.166;5.004;2022-08-01T08:14:56;101968.91;;;24.45;53.47
71384;BME280;61466;52.166;5.004;2022-08-01T08:17:23;101974.22;;;24.50;52.93
71384;BME280;61466;52.166;5.004;2022-08-01T08:19:49;101976.50;;;24.48;52.74
71384;BME280;61466;52.166;5.004;2022-08-01T08:22:14;101976.91;;;24.59;52.11
71384;BME280;61466;52.166;5.004;2022-08-01T08:24:39;101987.38;;;24.57;51.99
71384;BME280;61466;52.166;5.004;2022-08-01T08:27:05;101983.97;;;24.60;51.45
71384;BME280;61466;52.166;5.004;2022-08-01T08:29:31;101985.31;;;24.75;51.33
71384;BME280;61466;52.166;5.004;2022-08-01T08:31:57;101984.44;;;24.83;51.35
71384;BME280;61466;52.166;5.004;2022-08-01T08:34:24;101985.38;;;24.87;50.69
71384;BME280;61466;52.166;5.004;2022-08-01T08:36:50;101979.16;;;25.20;50.04
71384;BME280;61466;52.166;5.004;2022-08-01T08:39:16;101986.69;;;25.57;49.63
71384;BME280;61466;52.166;5.004;2022-08-01T08:41:42;101982.84;;;25.82;49.03
71384;BME280;61466;52.166;5.004;2022-08-01T08:44:09;101985.50;;;26.03;48.85
71384;BME280;61466;52.166;5.004;2022-08-01T08:46:40;101985.75;;;26.23;47.23
71384;BME280;61466;52.166;5.004;2022-08-01T08:49:06;101989.94;;;26.57;47.71
71384;BME280;61466;52.166;5.004;2022-08-01T08:51:34;102002.81;;;26.81;48.05
71384;BME280;61466;52.166;5.004;2022-08-01T08:54:00;102001.22;;;27.08;47.06
71384;BME280;61466;52.166;5.004;2022-08-01T08:56:27;101995.38;;;27.38;47.09
71384;BME280;61466;52.166;5.004;2022-08-01T08:58:55;102001.25;;;27.52;46.30
71384;BME280;61466;52.166;5.004;2022-08-01T09:01:20;101991.44;;;27.67;45.45
71384;BME280;61466;52.166;5.004;2022-08-01T09:03:47;101999.22;;;27.81;44.84
71384;BME280;61466;52.166;5.004;2022-08-01T09:06:12;101999.41;;;27.72;44.19
71384;BME280;61466;52.166;5.004;2022-08-01T09:08:39;102001.28;;;27.24;44.68
71384;BME280;61466;52.166;5.004;2022-08-01T09:11:05;101999.56;;;26.91;45.18
71384;BME280;61466;52.166;5.004;2022-08-01T09:13:30;102010.13;;;26.77;46.61
71384;BME280;61466;52.166;5.004;2022-08-01T09:15:55;102011.63;;;26.50;45.89
71384;BME280;61466;52.166;5.004;2022-08-01T09:18:39;102016.13;;;26.05;45.31
71384;BME280;61466;52.166;5.004;2022-08-01T09:21:20;102012.41;;;25.77;46.40
71384;BME280;61466;52.166;5.004;2022-08-01T09:23:52;102023.34;;;25.64;47.46
71384;BME280;61466;52.166;5.004;2022-08-01T09:26:21;102024.91;;;25.53;47.40
71384;BME280;61466;52.166;5.004;2022-08-01T09:28:47;102022.47;;;25.39;47.62
71384;BME280;61466;52.166;5.004;2022-08-01T09:31:15;102024.03;;;25.28;47.50
71384;BME280;61466;52.166;5.004;2022-08-01T09:33:58;102015.94;;;25.10;45.90
71384;BME280;61466;52.166;5.004;2022-08-01T09:36:25;102025.34;;;25.43;46.60
71384;BME280;61466;52.166;5.004;2022-08-01T09:38:53;102025.16;;;25.60;46.35
71384;BME280;61466;52.166;5.004;2022-08-01T09:41:29;102032.66;;;25.51;45.81
71384;BME280;61466;52.166;5.004;2022-08-01T09:43:55;102035.06;;;25.52;47.11
71384;BME280;61466;52.166;5.004;2022-08-01T09:46:21;102043.22;;;25.40;46.98
71384;BME280;61466;52.166;5.004;2022-08-01T09:51:30;102039.84;;;25.43;46.59
71384;BME280;61466;52.166;5.004;2022-08-01T09:53:56;102046.38;;;25.63;46.04
71384;BME280;61466;52.166;5.004;2022-08-01T09:56:22;102046.19;;;25.81;46.10
71384;BME280;61466;52.166;5.004;2022-08-01T09:58:52;102050.50;;;25.90;45.57
71384;BME280;61466;52.166;5.004;2022-08-01T10:01:20;102049.13;;;26.09;46.13
71384;BME280;61466;52.166;5.004;2022-08-01T10:03:46;102049.25;;;26.12;45.40
71384;BME280;61466;52.166;5.004;2022-08-01T10:06:21;102039.53;;;26.03;43.94
71384;BME280;61466;52.166;5.004;2022-08-01T10:08:48;102039.66;;;26.19;45.36
71384;BME280;61466;52.166;5.004;2022-08-01T10:11:13;102048.91;;;26.26;45.64
71384;BME280;61466;52.166;5.004;2022-08-01T10:13:39;102037.38;;;26.21;45.74
71384;BME280;61466;52.166;5.004;2022-08-01T10:16:06;102042.41;;;26.31;44.50
71384;BME280;61466;52.166;5.004;2022-08-01T10:18:32;102042.28;;;26.40;44.25
71384;BME280;61466;52.166;5.004;2022-08-01T10:21:00;102046.19;;;26.63;44.07
71384;BME280;61466;52.166;5.004;2022-08-01T10:23:27;102053.03;;;27.22;43.56
71384;BME280;61466;52.166;5.004;2022-08-01T10:25:56;102054.94;;;27.78;43.40
71384;BME280;61466;52.166;5.004;2022-08-01T10:28:24;102044.66;;;28.23;41.92
71384;BME280;61466;52.166;5.004;2022-08-01T10:30:51;102052.72;;;28.63;42.36
71384;BME280;61466;52.166;5.004;2022-08-01T10:33:17;102040.00;;;29.13;42.17
71384;BME280;61466;52.166;5.004;2022-08-01T10:35:45;102048.53;;;29.47;40.47
71384;BME280;61466;52.166;5.004;2022-08-01T10:38:11;102038.47;;;29.78;39.55
71384;BME280;61466;52.166;5.004;2022-08-01T10:40:37;102042.00;;;30.25;39.23
71384;BME280;61466;52.166;5.004;2022-08-01T10:43:03;102044.28;;;30.72;38.01
71384;BME280;61466;52.166;5.004;2022-08-01T10:45:29;102042.47;;;31.17;37.54
71384;BME280;61466;52.166;5.004;2022-08-01T10:47:57;102043.38;;;31.62;37.99
71384;BME280;61466;52.166;5.004;2022-08-01T10:50:31;102049.41;;;31.75;36.35
71384;BME280;61466;52.166;5.004;2022-08-01T10:53:06;102051.97;;;31.54;34.04
71384;BME280;61466;52.166;5.004;2022-08-01T10:55:57;102047.41;;;31.38;33.87
71384;BME280;61466;52.166;5.004;2022-08-01T11:04:26;102057.63;;;30.40;36.00
71384;BME280;61466;52.166;5.004;2022-08-01T11:08:58;102061.31;;;30.25;36.43
71384;BME280;61466;52.166;5.004;2022-08-01T11:11:25;102065.72;;;30.56;35.13
71384;BME280;61466;52.166;5.004;2022-08-01T11:16:36;102064.78;;;31.01;33.24
71384;BME280;61466;52.166;5.004;2022-08-01T11:19:04;102054.09;;;31.34;33.87
71384;BME280;61466;52.166;5.004;2022-08-01T11:32:46;102071.03;;;31.29;30.05
71384;BME280;61466;52.166;5.004;2022-08-01T11:35:12;102062.84;;;31.39;31.73
71384;BME280;61466;52.166;5.004;2022-08-01T11:37:37;102063.06;;;31.57;31.39
71384;BME280;61466;52.166;5.004;2022-08-01T11:40:23;102059.19;;;31.28;29.44
71384;BME280;61466;52.166;5.004;2022-08-01T11:42:51;102056.75;;;31.23;31.36
71384;BME280;61466;52.166;5.004;2022-08-01T11:45:52;102059.88;;;30.88;30.61
71384;BME280;61466;52.166;5.004;2022-08-01T11:48:22;102063.28;;;31.08;31.02
71384;BME280;61466;52.166;5.004;2022-08-01T11:50:50;102050.97;;;31.01;30.53
71384;BME280;61466;52.166;5.004;2022-08-01T11:53:16;102060.75;;;31.26;30.66
71384;BME280;61466;52.166;5.004;2022-08-01T11:55:54;102059.50;;;31.57;28.32
71384;BME280;61466;52.166;5.004;2022-08-01T11:58:24;102045.03;;;31.74;27.76
71384;BME280;61466;52.166;5.004;2022-08-01T12:00:55;102057.81;;;31.90;26.74
71384;BME280;61466;52.166;5.004;2022-08-01T12:03:29;102052.28;;;31.90;25.92
71384;BME280;61466;52.166;5.004;2022-08-01T12:05:56;102054.22;;;32.34;27.84
71384;BME280;61466;52.166;5.004;2022-08-01T12:08:30;102059.66;;;32.82;23.01
71384;BME280;61466;52.166;5.004;2022-08-01T12:10:58;102060.13;;;32.91;25.67
71384;BME280;61466;52.166;5.004;2022-08-01T12:13:23;102051.41;;;32.96;26.45
71384;BME280;61466;52.166;5.004;2022-08-01T12:15:49;102059.00;;;33.10;26.94
71384;BME280;61466;52.166;5.004;2022-08-01T12:18:15;102064.22;;;33.40;27.66
71384;BME280;61466;52.166;5.004;2022-08-01T12:20:43;102061.50;;;33.62;26.79
71384;BME280;61466;52.166;5.004;2022-08-01T12:23:11;102065.88;;;33.70;26.71
71384;BME280;61466;52.166;5.004;2022-08-01T12:25:37;102060.34;;;33.70;26.72
71384;BME280;61466;52.166;5.004;2022-08-01T12:28:07;102061.94;;;33.78;26.07
71384;BME280;61466;52.166;5.004;2022-08-01T12:30:34;102063.50;;;33.61;25.71
71384;BME280;61466;52.166;5.004;2022-08-01T12:33:01;102065.81;;;33.31;26.97
71384;BME280;61466;52.166;5.004;2022-08-01T12:35:28;102053.78;;;33.01;27.02
71384;BME280;61466;52.166;5.004;2022-08-01T12:38:00;102071.53;;;32.79;27.49
71384;BME280;61466;52.166;5.004;2022-08-01T12:40:28;102065.47;;;32.55;27.83
71384;BME280;61466;52.166;5.004;2022-08-01T12:42:59;102060.84;;;32.18;28.11
71384;BME280;61466;52.166;5.004;2022-08-01T12:45:27;102061.59;;;32.15;28.24
71384;BME280;61466;52.166;5.004;2022-08-01T12:47:54;102060.38;;;32.09;28.82
71384;BME280;61466;52.166;5.004;2022-08-01T12:50:22;102065.09;;;32.05;28.98
71384;BME280;61466;52.166;5.004;2022-08-01T12:52:48;102067.47;;;32.03;28.63
71384;BME280;61466;52.166;5.004;2022-08-01T12:55:16;102058.84;;;32.15;28.92
71384;BME280;61466;52.166;5.004;2022-08-01T12:57:47;102056.16;;;32.26;28.62
71384;BME280;61466;52.166;5.004;2022-08-01T13:00:16;102058.97;;;32.37;29.54
71384;BME280;61466;52.166;5.004;2022-08-01T13:02:43;102056.03;;;32.67;29.29
71384;BME280;61466;52.166;5.004;2022-08-01T13:05:09;102061.59;;;32.71;29.84
71384;BME280;61466;52.166;5.004;2022-08-01T13:10:11;102064.34;;;32.71;29.52
71384;BME280;61466;52.166;5.004;2022-08-01T13:12:37;102066.88;;;32.31;29.39
71384;BME280;61466;52.166;5.004;2022-08-01T13:15:36;102058.19;;;31.84;30.45
71384;BME280;61466;52.166;5.004;2022-08-01T13:18:22;102061.81;;;31.51;30.70
71384;BME280;61466;52.166;5.004;2022-08-01T13:20:48;102050.59;;;31.40;30.45
71384;BME280;61466;52.166;5.004;2022-08-01T13:23:19;102051.22;;;31.57;31.07
71384;BME280;61466;52.166;5.004;2022-08-01T13:25:52;102064.72;;;31.66;29.96